Terminal Aerodrome Forecast
Issued by NWS Chicago, IL

Home | Current Version | Previous Version | Text Only | Print | Product List | Glossary On
Versions: 1 2 3 4 5 6 7 8 9 10 11 12 13 14 15 16 17 18 19 20 21 22 23 24 25 26 27 28 29
825
FTUS43 KLOT 210257 AAA
TAFRFD
TAF AMD
KRFD 210257Z 2103/2124 07006KT P6SM SCT020 OVC060
     FM210800 07007KT P6SM VCSH SCT010 BKN020
     FM211000 07007KT 5SM -SHRA BR OVC008
     FM211800 08012KT 6SM -SHRA BR OVC010=

USA.gov is the U.S. government's official web portal to all federal, state and local government web resources and services.